Time;durP1;ratioP1;P1;durP2;ratioP2;P2;SDS_P1;SDS_P2;PMS_P1;PMS_P2;Temp;Humidity;BMP_temperature;BMP_pressure;BME280_temperature;BME280_humidity;BME280_pressure;Samples;Min_cycle;Max_cycle;Signal;HPM_P1;HPM_P2
2023/03/28 00:03:21;;;;;;;5.53;3.67;;;;;;;2.93;45.98;99462.41;7633702;32;39906;-84
2023/03/28 00:07:38;;;;;;;5.40;3.70;;;;;;;3.14;44.81;99469.13;7634211;32;37545;-79
2023/03/28 00:11:55;;;;;;;5.07;3.85;;;;;;;2.95;45.48;99472.94;7637028;32;37979;-81
2023/03/28 00:16:11;;;;;;;5.82;3.20;;;;;;;3.11;45.98;99480.38;7635775;32;39569;-83
2023/03/28 00:20:28;;;;;;;4.45;3.72;;;;;;;2.86;45.11;99480.50;7632960;32;40792;-83
2023/03/28 00:24:46;;;;;;;6.03;3.53;;;;;;;3.15;45.30;99478.84;7633249;32;38621;-83
2023/03/28 00:29:05;;;;;;;4.68;3.20;;;;;;;3.14;45.93;99490.69;7633190;32;37076;-84
2023/03/28 00:33:21;;;;;;;4.97;3.62;;;;;;;2.93;45.50;99486.66;7633403;32;39050;-83
2023/03/28 00:37:40;;;;;;;6.25;3.95;;;;;;;2.83;45.69;99499.84;7633183;32;40026;-83
2023/03/28 00:42:00;;;;;;;4.10;3.30;;;;;;;2.90;45.88;99494.34;7632830;32;37871;-83
2023/03/28 00:46:31;;;;;;;6.62;3.80;;;;;;;2.54;46.25;99502.28;7633045;32;37105;-84
2023/03/28 00:50:48;;;;;;;5.07;3.28;;;;;;;2.61;47.51;99503.00;7632331;32;40467;-83
2023/03/28 00:55:06;;;;;;;5.75;3.42;;;;;;;2.84;46.75;99517.62;7632661;32;40086;-84
2023/03/28 00:59:27;;;;;;;5.53;3.22;;;;;;;2.39;48.56;99526.84;7632514;32;37717;-83
2023/03/28 01:03:51;;;;;;;4.40;3.40;;;;;;;2.67;46.26;99516.59;7631861;32;37934;-81
2023/03/28 01:08:15;;;;;;;5.93;3.30;;;;;;;2.31;47.27;99529.03;7632915;32;39309;-82
2023/03/28 01:12:32;;;;;;;3.87;3.30;;;;;;;2.61;46.66;99521.84;7632424;32;39714;-83
2023/03/28 01:16:50;;;;;;;5.85;3.87;;;;;;;2.12;49.30;99525.50;7602620;32;38622;-85
2023/03/28 01:21:30;;;;;;;4.72;3.42;;;;;;;2.41;47.46;99526.63;7623280;32;37272;-83
2023/03/28 01:26:06;;;;;;;7.25;3.37;;;;;;;2.36;47.52;99524.62;7631578;32;39306;-84
2023/03/28 01:30:58;;;;;;;5.82;3.28;;;;;;;2.13;48.81;99535.22;7632161;32;39903;-84
2023/03/28 01:35:47;;;;;;;5.15;3.30;;;;;;;2.02;49.38;99534.09;7631315;32;38509;-84
2023/03/28 01:40:07;;;;;;;6.30;3.40;;;;;;;2.11;49.11;99540.81;7632173;32;37417;-84
2023/03/28 01:44:23;;;;;;;5.87;3.80;;;;;;;2.23;49.23;99540.91;7632533;32;40136;-82
2023/03/28 01:49:01;;;;;;;5.55;3.80;;;;;;;2.04;49.74;99561.59;7631990;32;40553;-84
2023/03/28 01:53:31;;;;;;;8.48;4.03;;;;;;;2.42;48.97;99555.19;7631234;32;37498;-83
2023/03/28 01:57:55;;;;;;;4.30;3.90;;;;;;;2.31;49.71;99566.69;7631304;32;37800;-85
2023/03/28 02:02:26;;;;;;;4.95;4.03;;;;;;;1.92;51.61;99584.88;7630950;32;39867;-85
2023/03/28 02:06:45;;;;;;;5.65;4.22;;;;;;;1.77;52.20;99588.69;7632177;32;40766;-83
2023/03/28 02:11:02;;;;;;;6.60;3.80;;;;;;;2.16;51.31;99592.09;7630393;32;37929;-83
2023/03/28 02:15:20;;;;;;;6.40;4.20;;;;;;;1.83;52.37;99601.28;7631887;32;37210;-84
2023/03/28 02:19:37;;;;;;;5.68;4.43;;;;;;;1.92;52.86;99607.19;7631634;32;40307;-85
2023/03/28 02:23:54;;;;;;;7.62;4.30;;;;;;;1.67;53.68;99613.37;7631818;32;39621;-83
2023/03/28 02:28:12;;;;;;;6.25;4.15;;;;;;;1.82;53.25;99618.44;7630772;32;38617;-84
2023/03/28 02:32:32;;;;;;;7.28;4.18;;;;;;;1.67;54.44;99632.19;7631599;32;37069;-84
2023/03/28 02:37:09;;;;;;;6.72;3.97;;;;;;;1.90;53.60;99630.78;7630792;32;39403;-83
2023/03/28 02:41:39;;;;;;;5.57;4.10;;;;;;;2.07;53.10;99636.44;7631533;32;39676;-84
2023/03/28 02:46:02;;;;;;;7.22;4.30;;;;;;;1.94;53.66;99641.94;7630499;32;38330;-83
2023/03/28 02:50:52;;;;;;;5.95;3.85;;;;;;;2.03;53.45;99645.97;7631524;32;37916;-83
2023/03/28 02:55:38;;;;;;;7.22;4.85;;;;;;;2.05;53.68;99650.13;7631547;32;39542;-83
2023/03/28 03:00:12;;;;;;;7.05;4.87;;;;;;;2.14;53.46;99658.72;7631093;32;39921;-83
2023/03/28 03:04:28;;;;;;;7.35;4.15;;;;;;;2.06;53.88;99667.06;7630075;32;37942;-84
2023/03/28 03:08:45;;;;;;;6.68;4.25;;;;;;;1.87;54.89;99666.97;7630976;32;38217;-83
2023/03/28 03:13:01;;;;;;;5.97;4.70;;;;;;;1.85;55.63;99677.12;7630710;32;39399;-83
2023/03/28 03:17:18;;;;;;;6.47;4.43;;;;;;;1.93;55.25;99677.91;7630971;32;40934;-84
2023/03/28 03:21:36;;;;;;;6.30;4.35;;;;;;;2.18;54.81;99691.38;7632155;32;37849;-85
2023/03/28 03:25:52;;;;;;;6.37;4.40;;;;;;;1.84;55.71;99691.59;7633994;32;37123;-83
2023/03/28 03:30:09;;;;;;;9.18;4.65;;;;;;;2.03;55.63;99699.75;7634706;32;39378;-83
2023/03/28 03:34:25;;;;;;;6.15;4.70;;;;;;;2.24;54.88;99704.78;7637438;32;39910;-84
2023/03/28 03:38:41;;;;;;;6.20;4.72;;;;;;;2.18;54.94;99697.59;7632745;32;37522;-83
2023/03/28 03:42:58;;;;;;;6.80;4.80;;;;;;;2.31;54.64;99707.44;7634420;32;37752;-83
2023/03/28 03:47:16;;;;;;;6.85;5.05;;;;;;;2.20;54.77;99708.94;7634283;32;39567;-83
2023/03/28 03:51:33;;;;;;;8.55;5.03;;;;;;;2.14;55.07;99711.69;7633741;32;39010;-83
2023/03/28 03:55:49;;;;;;;6.20;5.05;;;;;;;1.91;55.94;99721.16;7632563;32;37981;-82
2023/03/28 04:00:10;;;;;;;8.70;5.40;;;;;;;2.12;55.48;99713.75;7627421;32;36919;-83
2023/03/28 04:04:27;;;;;;;12.23;6.20;;;;;;;2.00;55.67;99716.31;7633941;32;39512;-83
2023/03/28 04:08:44;;;;;;;9.38;6.20;;;;;;;2.05;55.72;99721.88;7633127;32;39927;-82
2023/03/28 04:13:00;;;;;;;7.57;5.40;;;;;;;1.73;56.80;99732.63;7633314;32;37826;-83
2023/03/28 04:17:20;;;;;;;9.65;5.25;;;;;;;1.30;58.07;99738.62;7633144;32;37811;-84
2023/03/28 04:21:41;;;;;;;7.95;5.20;;;;;;;1.51;57.73;99742.87;7633457;32;40135;-84
2023/03/28 04:25:57;;;;;;;7.18;5.45;;;;;;;1.80;56.99;99754.91;7633444;32;39747;-83
2023/03/28 04:30:16;;;;;;;8.70;5.82;;;;;;;1.97;56.43;99757.13;7633014;32;37778;-83
2023/03/28 04:34:34;;;;;;;7.20;5.70;;;;;;;2.01;56.51;99769.06;7632974;32;37383;-82
2023/03/28 04:38:57;;;;;;;7.12;5.85;;;;;;;1.60;57.23;99762.25;7631434;32;39355;-85
2023/03/28 04:43:13;;;;;;;7.53;5.32;;;;;;;1.67;57.42;99766.59;7632203;32;39969;-83
2023/03/28 04:47:29;;;;;;;7.60;5.35;;;;;;;2.01;56.65;99771.78;7633004;32;37822;-84
2023/03/28 04:51:46;;;;;;;7.12;4.87;;;;;;;2.16;56.34;99785.75;7633206;32;37895;-83
2023/03/28 04:56:02;;;;;;;8.68;5.75;;;;;;;1.95;56.51;99794.13;7632602;32;39531;-83
2023/03/28 05:00:19;;;;;;;11.27;5.10;;;;;;;2.38;55.26;99790.75;7631884;32;40843;-83
2023/03/28 05:04:36;;;;;;;7.68;5.22;;;;;;;2.52;54.97;99797.72;7632471;32;38039;-83
2023/03/28 05:08:52;;;;;;;6.95;5.07;;;;;;;2.27;55.04;99796.84;7631534;32;37063;-83
2023/03/28 05:13:08;;;;;;;8.00;5.37;;;;;;;1.93;55.99;99802.41;7631469;32;40298;-85
2023/03/28 05:17:25;;;;;;;6.60;5.20;;;;;;;2.23;54.83;99810.72;7632686;32;40016;-83
2023/03/28 05:21:44;;;;;;;7.93;5.18;;;;;;;2.33;55.00;99809.41;7632574;32;36741;-76
2023/03/28 05:26:01;;;;;;;8.00;5.20;;;;;;;2.28;60.85;99817.31;7632834;32;37064;-82
2023/03/28 05:30:17;;;;;;;8.00;5.03;;;;;;;2.45;57.40;99821.16;7631924;32;39031;-71
2023/03/28 05:34:34;;;;;;;9.15;5.20;;;;;;;2.65;60.99;99818.31;7631542;32;40061;-83
2023/03/28 05:38:51;;;;;;;7.50;5.22;;;;;;;2.77;55.74;99827.31;7632027;32;38635;-83
2023/03/28 05:43:07;;;;;;;9.43;5.18;;;;;;;2.86;54.56;99832.44;7618917;32;38000;-84
2023/03/28 05:47:23;;;;;;;7.12;5.15;;;;;;;2.85;53.92;99839.69;7631561;32;40192;-82
2023/03/28 05:51:40;;;;;;;8.90;5.12;;;;;;;2.43;55.77;99844.75;7632422;32;40848;-82
2023/03/28 05:55:56;;;;;;;6.68;4.53;;;;;;;2.78;54.23;99853.22;7632161;32;38600;-79
2023/03/28 06:00:13;;;;;;;8.32;5.40;;;;;;;2.78;54.38;99855.91;7631805;32;37276;-84
2023/03/28 06:04:30;;;;;;;10.60;5.43;;;;;;;2.92;54.26;99856.63;7619012;32;39384;-82
2023/03/28 06:08:46;;;;;;;7.78;4.90;;;;;;;3.05;53.90;99862.94;7617460;32;39928;-81
2023/03/28 06:13:02;;;;;;;7.55;5.28;;;;;;;3.03;55.11;99865.03;7605834;32;37841;-85
2023/03/28 06:17:18;;;;;;;11.00;5.00;;;;;;;2.81;54.51;99863.53;7631374;32;36826;-85
2023/03/28 06:21:35;;;;;;;7.28;5.20;;;;;;;3.38;53.07;99874.22;7631425;32;40239;-83
2023/03/28 06:25:51;;;;;;;6.55;4.57;;;;;;;3.85;52.03;99875.62;7624458;32;39904;-84
2023/03/28 06:30:08;;;;;;;7.65;5.25;;;;;;;3.86;52.48;99880.75;7630473;32;38325;-82
2023/03/28 06:34:24;;;;;;;7.45;5.12;;;;;;;4.05;51.39;99884.28;7632302;32;36999;-84
2023/03/28 06:38:41;;;;;;;6.65;4.90;;;;;;;3.56;52.06;99886.91;7634677;32;39454;-82
2023/03/28 06:42:57;;;;;;;8.20;5.07;;;;;;;3.92;51.74;99889.84;7632224;32;39600;-83
2023/03/28 06:47:13;;;;;;;7.32;4.95;;;;;;;4.31;51.26;99888.53;7631369;32;38433;-82
2023/03/28 06:51:33;;;;;;;9.38;4.90;;;;;;;4.27;50.52;99889.19;7631858;32;37019;-81
2023/03/28 06:55:53;;;;;;;8.63;5.60;;;;;;;4.04;51.64;99888.03;7631688;32;39018;-82
2023/03/28 07:00:10;;;;;;;7.32;4.85;;;;;;;4.36;51.02;99898.59;7631257;32;40886;-82
2023/03/28 07:04:26;;;;;;;7.90;5.20;;;;;;;4.20;50.97;99902.78;7631226;32;37976;-84
2023/03/28 07:08:42;;;;;;;8.23;5.50;;;;;;;4.63;51.24;99884.75;7631041;32;37017;-82
2023/03/28 07:12:59;;;;;;;7.25;5.00;;;;;;;4.58;50.80;99877.34;7630529;32;39427;-83
2023/03/28 07:17:15;;;;;;;7.00;4.62;;;;;;;4.77;49.67;99896.19;7630852;32;40091;-84
2023/03/28 07:21:31;;;;;;;6.05;4.22;;;;;;;5.11;49.38;99886.50;7630535;32;37572;-82
2023/03/28 07:25:50;;;;;;;7.15;4.80;;;;;;;4.41;50.39;99898.75;7630633;32;37161;-81
2023/03/28 07:30:07;;;;;;;6.95;4.22;;;;;;;4.69;50.38;99897.31;7630356;32;40088;-82
2023/03/28 07:34:23;;;;;;;7.87;4.00;;;;;;;4.33;49.69;99907.19;7630425;32;40747;-82
2023/03/28 07:38:40;;;;;;;7.35;3.78;;;;;;;4.32;51.09;99902.84;7626722;32;37963;-81
2023/03/28 07:42:56;;;;;;;5.40;4.00;;;;;;;4.29;50.67;99903.28;7622743;32;37037;-81
2023/03/28 07:47:12;;;;;;;5.28;3.80;;;;;;;5.04;50.35;99891.19;7604691;32;40109;-80
2023/03/28 07:51:29;;;;;;;5.18;3.30;;;;;;;5.14;48.77;99907.66;7606834;32;39968;-81
2023/03/28 07:55:47;;;;;;;8.25;3.83;;;;;;;4.50;49.58;99910.91;7613860;32;37808;-83
2023/03/28 08:00:11;;;;;;;5.07;3.25;;;;;;;4.66;50.00;99927.50;7629086;32;37181;-81
2023/03/28 08:04:28;;;;;;;4.85;3.00;;;;;;;4.78;49.25;99931.06;7626184;32;40166;-81
2023/03/28 08:08:45;;;;;;;4.70;3.42;;;;;;;5.02;49.02;99912.22;7630582;32;39736;-81
2023/03/28 08:13:01;;;;;;;6.25;3.42;;;;;;;4.78;49.88;99922.97;7631268;32;37953;-81
2023/03/28 08:17:18;;;;;;;5.03;3.08;;;;;;;5.15;48.44;99913.88;7629898;32;37203;-80
2023/03/28 08:21:34;;;;;;;7.35;3.95;;;;;;;4.38;48.31;99918.13;7606327;32;40068;-81
2023/03/28 08:25:51;;;;;;;9.07;3.80;;;;;;;4.61;48.86;99919.28;7606987;32;40863;-82
2023/03/28 08:30:07;;;;;;;4.30;3.53;;;;;;;4.06;50.20;99915.59;7607023;32;38476;-82
2023/03/28 08:34:24;;;;;;;4.72;3.40;;;;;;;5.08;48.83;99903.16;7605672;32;37838;-81
2023/03/28 08:38:42;;;;;;;6.00;3.30;;;;;;;5.10;48.46;99900.25;7592634;32;40143;-82
2023/03/28 08:43:32;;;;;;;3.47;3.12;;;;;;;5.19;47.46;99905.09;7605973;32;39911;-83
2023/03/28 08:48:01;;;;;;;3.97;3.25;;;;;;;5.11;49.18;99891.91;7594731;32;37861;-80
2023/03/28 08:52:19;;;;;;;3.08;2.70;;;;;;;5.44;47.86;99885.09;7594427;32;38447;-80
2023/03/28 08:56:41;;;;;;;5.93;2.55;;;;;;;5.31;43.23;99869.09;7606732;32;39115;-80
2023/03/28 09:00:58;;;;;;;3.70;2.22;;;;;;;5.86;42.66;99876.81;7593802;32;40082;-80
2023/03/28 09:05:37;;;;;;;4.90;2.33;;;;;;;5.89;40.73;99870.94;7606601;32;37587;-80
2023/03/28 09:10:12;;;;;;;3.20;2.33;;;;;;;6.25;39.93;99863.56;7595114;32;37012;-80
2023/03/28 09:15:00;;;;;;;2.40;2.20;;;;;;;6.27;39.63;99871.44;7592871;32;40123;-83
2023/03/28 09:20:10;;;;;;;2.45;2.10;;;;;;;6.79;40.30;99875.91;7597225;32;40689;-83
2023/03/28 09:24:37;;;;;;;3.60;2.42;;;;;;;6.68;39.15;99878.44;7606399;32;38755;-80
2023/03/28 09:29:05;;;;;;;3.03;2.30;;;;;;;6.62;40.55;99873.16;7593462;32;37210;-82
2023/03/28 09:33:28;;;;;;;5.93;2.00;;;;;;;6.76;39.24;99869.91;7606358;32;39417;-82
2023/03/28 09:37:47;;;;;;;;;;;;;;;6.96;39.16;99869.41;7593359;32;40017;-81
2023/03/28 09:42:22;;;;;;;2.08;1.95;;;;;;;7.21;38.25;99870.06;7606601;32;38724;-82
2023/03/28 09:46:45;;;;;;;2.33;2.03;;;;;;;7.32;37.12;99858.31;7594806;32;37149;-82
2023/03/28 09:51:03;;;;;;;2.65;2.10;;;;;;;7.58;39.24;99880.38;7593256;32;39437;-82
2023/03/28 09:55:26;;;;;;;3.10;2.30;;;;;;;7.43;36.24;99889.94;7592961;32;40610;-82
2023/03/28 09:59:44;;;;;;;2.80;2.30;;;;;;;7.22;39.24;99893.41;7593288;32;37808;-83
2023/03/28 10:04:01;;;;;;;2.72;2.28;;;;;;;7.52;39.23;99898.50;7606054;32;37906;-83
2023/03/28 10:08:27;;;;;;;2.17;1.98;;;;;;;7.38;40.34;99898.03;7593298;32;39335;-82
2023/03/28 10:12:47;;;;;;;3.50;2.17;;;;;;;8.34;37.86;99894.09;7605822;32;39972;-82
2023/03/28 10:17:17;;;;;;;2.53;1.85;;;;;;;8.93;39.23;99879.78;7606135;32;37905;-80
2023/03/28 10:21:34;;;;;;;2.45;1.90;;;;;;;9.50;36.11;99877.47;7605887;32;37320;-82
2023/03/28 10:25:52;;;;;;;3.58;1.98;;;;;;;9.52;33.90;99881.59;7605872;32;39416;-81
2023/03/28 10:30:12;;;;;;;2.58;2.08;;;;;;;8.25;37.43;99907.31;7591788;32;39839;-82
2023/03/28 10:34:33;;;;;;;3.12;2.20;;;;;;;8.16;40.56;99914.28;7605709;32;38003;-83
2023/03/28 10:38:49;;;;;;;1.85;1.70;;;;;;;8.59;41.56;99912.63;7620032;32;35993;-82
2023/03/28 10:43:12;;;;;;;2.03;1.90;;;;;;;9.21;36.69;99902.34;7631417;32;39075;-81
2023/03/28 10:47:29;;;;;;;1.83;1.60;;;;;;;9.12;33.83;99903.88;7631116;32;39893;-80
2023/03/28 10:51:46;;;;;;;1.60;1.50;;;;;;;9.92;33.24;99884.81;7626695;32;38446;-83
2023/03/28 10:56:14;;;;;;;1.70;1.60;;;;;;;10.41;29.68;99900.81;7620320;32;37025;-81
2023/03/28 11:00:50;;;;;;;1.85;1.70;;;;;;;10.46;32.53;99878.22;7616172;32;39274;-82
2023/03/28 11:05:32;;;;;;;2.10;1.90;;;;;;;10.62;30.92;99882.59;7612308;32;39567;-81
2023/03/28 11:10:07;;;;;;;1.83;1.62;;;;;;;10.32;30.87;99896.97;7603343;32;37969;-82
2023/03/28 11:14:38;;;;;;;1.98;1.80;;;;;;;9.62;31.89;99902.59;7604173;32;37033;-82
2023/03/28 11:19:00;;;;;;;1.70;1.60;;;;;;;9.96;32.85;99907.69;7630960;32;39286;-83
2023/03/28 11:23:42;;;;;;;2.77;1.50;;;;;;;10.62;28.27;99903.59;7629655;32;40048;-82
2023/03/28 11:28:26;;;;;;;;;;;;;;;10.87;26.39;99913.75;7630492;32;38717;-83
2023/03/28 11:32:52;;;;;;;4.70;1.50;;;;;;;11.24;25.29;99899.84;7608303;32;37551;-81
2023/03/28 11:37:24;;;;;;;1.75;1.20;;;;;;;10.90;25.28;99894.13;7620950;32;39531;-82
2023/03/28 11:41:41;;;;;;;2.00;1.40;;;;;;;10.86;26.23;99896.53;7626281;32;40837;-81
2023/03/28 11:46:28;;;;;;;2.70;1.50;;;;;;;11.84;24.68;99910.13;7628198;32;37894;-84
2023/03/28 11:51:12;;;;;;;1.50;1.40;;;;;;;11.74;25.24;99908.22;7620942;32;37327;-83
2023/03/28 11:55:40;;;;;;;1.83;1.42;;;;;;;11.70;23.32;99895.44;7609119;32;39498;-80
2023/03/28 12:00:27;;;;;;;1.65;1.40;;;;;;;11.13;22.54;99905.59;7621634;32;40015;-84
2023/03/28 12:05:00;;;;;;;1.42;1.35;;;;;;;10.47;23.59;99912.56;7641978;32;38840;-83
2023/03/28 12:09:43;;;;;;;2.47;1.40;;;;;;;10.45;23.78;99915.56;7632279;32;37781;-83
2023/03/28 12:14:05;;;;;;;1.40;1.30;;;;;;;10.45;24.06;99915.56;7612391;32;40297;-84
2023/03/28 12:18:59;;;;;;;1.20;1.20;;;;;;;10.78;23.24;99929.81;7615662;32;39896;-83
2023/03/28 12:23:27;;;;;;;1.02;1.02;;;;;;;11.30;22.23;99918.94;7603704;32;38752;-83
2023/03/28 12:28:09;;;;;;;1.58;1.42;;;;;;;11.81;21.00;99921.59;7615266;32;37638;-84
2023/03/28 12:32:35;;;;;;;1.02;1.00;;;;;;;12.46;21.66;99909.94;7605749;32;40260;-82
2023/03/28 12:37:21;;;;;;;1.27;1.10;;;;;;;12.71;18.81;99918.00;7590260;32;40473;-84
2023/03/28 12:41:40;;;;;;;2.72;1.10;;;;;;;12.92;19.63;99915.94;7608242;32;38796;-83
2023/03/28 12:46:00;;;;;;;1.30;1.20;;;;;;;13.42;18.68;99924.06;7617726;32;37121;-85
2023/03/28 12:50:27;;;;;;;1.10;1.08;;;;;;;13.09;19.50;99922.94;7606143;32;40166;-83
2023/03/28 12:55:02;;;;;;;1.30;1.20;;;;;;;12.80;20.52;99936.53;7606548;32;41354;-82
2023/03/28 12:59:41;;;;;;;1.37;1.27;;;;;;;13.43;19.96;99919.41;7605940;32;37948;-83
2023/03/28 13:04:00;;;;;;;1.25;1.10;;;;;;;12.77;19.75;99940.66;7604600;32;36718;-82
2023/03/28 13:08:45;;;;;;;2.83;1.30;;;;;;;12.12;20.64;99940.69;7606440;32;39533;-82
2023/03/28 13:13:13;;;;;;;1.50;1.35;;;;;;;11.73;19.59;99933.09;7614506;32;40813;-84
2023/03/28 13:17:33;;;;;;;3.03;1.60;;;;;;;11.41;20.41;99956.06;7616660;32;37563;-82
2023/03/28 13:21:57;;;;;;;10.82;2.42;;;;;;;10.91;28.69;99985.75;7617004;32;37318;-81
2023/03/28 13:26:13;;;;;;;4.43;1.80;;;;;;;10.90;32.93;99995.84;7607050;32;39944;-82
2023/03/28 13:30:31;;;;;;;5.65;2.00;;;;;;;10.42;32.17;100003.31;7616649;32;40627;-82
2023/03/28 13:34:48;;;;;;;2.35;1.80;;;;;;;9.59;33.26;99995.69;7617345;32;37886;-82
2023/03/28 13:39:23;;;;;;;6.07;2.40;;;;;;;10.18;32.58;99996.62;7598820;32;37878;-81
2023/03/28 13:43:52;;;;;;;1.85;1.75;;;;;;;10.07;31.12;99985.66;7605581;32;39485;-82
2023/03/28 13:48:09;;;;;;;2.70;1.73;;;;;;;9.79;31.41;100000.44;7605953;32;40009;-80
2023/03/28 13:52:28;;;;;;;2.20;1.70;;;;;;;10.14;29.28;100008.03;7616441;32;37930;-83
2023/03/28 13:56:46;;;;;;;1.67;1.58;;;;;;;10.80;29.06;100031.28;7605760;32;37861;-82
2023/03/28 14:01:14;;;;;;;2.40;1.73;;;;;;;10.97;27.74;100035.69;7605646;32;41091;-81
2023/03/28 14:05:32;;;;;;;2.10;1.77;;;;;;;10.18;30.92;100027.41;7615205;32;40789;-83
2023/03/28 14:09:49;;;;;;;2.37;1.80;;;;;;;9.81;30.79;100044.56;7616759;32;37941;-81
2023/03/28 14:14:13;;;;;;;2.97;1.55;;;;;;;9.85;31.02;100039.41;7605293;32;37065;-81
2023/03/28 14:18:40;;;;;;;1.50;1.40;;;;;;;9.95;28.48;100042.22;7605726;32;39301;-83
2023/03/28 14:22:57;;;;;;;2.72;1.80;;;;;;;10.46;27.93;100045.28;7605508;32;39991;-81
2023/03/28 14:27:28;;;;;;;1.62;1.52;;;;;;;10.34;26.46;100047.41;7605311;32;38700;-80
2023/03/28 14:31:46;;;;;;;2.12;1.70;;;;;;;10.56;26.67;100058.16;7616436;32;37221;-80
2023/03/28 14:36:09;;;;;;;1.98;1.67;;;;;;;10.02;26.50;100071.97;7598231;32;39366;-81
2023/03/28 14:40:30;;;;;;;2.65;1.52;;;;;;;9.97;27.87;100078.22;7605500;32;40680;-82
2023/03/28 14:44:52;;;;;;;3.47;1.60;;;;;;;10.40;29.35;100091.84;7615672;32;37865;-83
2023/03/28 14:49:14;;;;;;;1.70;1.60;;;;;;;9.83;29.41;100115.09;7615623;32;37986;-81
2023/03/28 14:53:40;;;;;;;1.55;1.45;;;;;;;10.36;28.89;100118.81;7615753;32;40215;-81
2023/03/28 14:57:58;;;;;;;1.65;1.55;;;;;;;10.26;29.80;100110.53;7605058;32;41054;-81
2023/03/28 15:02:30;;;;;;;1.67;1.30;;;;;;;10.42;29.88;100115.06;7616075;32;38819;-81
2023/03/28 15:06:54;;;;;;;2.15;1.40;;;;;;;10.40;28.66;100087.25;7604834;32;36667;-80
2023/03/28 15:11:21;;;;;;;1.70;1.48;;;;;;;9.49;25.57;100088.13;7604798;32;39285;-81
2023/03/28 15:15:44;;;;;;;1.95;1.58;;;;;;;10.17;25.81;100088.41;7604167;32;39959;-79
2023/03/28 15:20:03;;;;;;;3.70;1.60;;;;;;;10.10;24.10;100099.53;7618448;32;38106;-80
2023/03/28 15:24:20;;;;;;;4.37;1.60;;;;;;;9.96;24.53;100092.91;7618377;32;37034;-80
2023/03/28 15:28:36;;;;;;;1.80;1.67;;;;;;;9.81;25.11;100098.22;7618433;32;40088;-79
2023/03/28 15:32:59;;;;;;;1.67;1.58;;;;;;;9.24;27.65;100119.41;7607593;32;40014;-80
2023/03/28 15:37:21;;;;;;;1.60;1.50;;;;;;;8.45;29.35;100135.00;7610198;32;38935;-80
2023/03/28 15:41:45;;;;;;;2.12;1.50;;;;;;;8.34;27.86;100122.28;7607591;32;37112;-81
2023/03/28 15:46:12;;;;;;;3.78;1.45;;;;;;;8.28;26.70;100124.13;7605832;32;39228;-82
2023/03/28 15:50:35;;;;;;;1.55;1.45;;;;;;;8.94;25.18;100142.47;7605863;32;40095;-82
2023/03/28 15:54:53;;;;;;;1.73;1.63;;;;;;;9.01;24.89;100151.25;7606862;32;38700;-81
2023/03/28 15:59:15;;;;;;;1.92;1.67;;;;;;;9.43;24.65;100166.16;7622020;32;36566;-76
2023/03/28 16:03:34;;;;;;;2.37;1.55;;;;;;;9.20;27.72;100170.78;7622539;32;39295;-83
2023/03/28 16:07:50;;;;;;;1.77;1.67;;;;;;;9.75;25.67;100171.69;7606449;32;39924;-85
2023/03/28 16:12:10;;;;;;;2.40;1.70;;;;;;;10.69;26.06;100172.22;7606685;32;38002;-86
2023/03/28 16:16:28;;;;;;;4.07;1.80;;;;;;;10.32;28.27;100167.56;7607441;32;35058;-85
2023/03/28 16:20:45;;;;;;;1.92;1.60;;;;;;;9.54;30.30;100188.88;7618194;32;39278;-83
2023/03/28 16:25:01;;;;;;;2.87;2.05;;;;;;;8.22;29.87;100200.34;7618565;32;39948;-86
2023/03/28 16:29:18;;;;;;;2.97;1.90;;;;;;;7.99;29.17;100212.19;7606952;32;37853;-82
2023/03/28 16:33:35;;;;;;;2.00;1.80;;;;;;;8.74;30.17;100227.28;7607217;32;36992;-85
2023/03/28 16:37:51;;;;;;;2.45;2.03;;;;;;;8.78;30.57;100227.63;7603449;32;39136;-82
2023/03/28 16:42:08;;;;;;;3.30;2.00;;;;;;;8.57;32.02;100246.34;7606848;32;39971;-84
2023/03/28 16:46:24;;;;;;;4.62;1.87;;;;;;;8.35;32.54;100257.06;7607091;32;37942;-84
2023/03/28 16:50:40;;;;;;;1.73;1.62;;;;;;;8.19;33.11;100261.41;7606641;32;37924;-87
2023/03/28 16:54:56;;;;;;;2.75;1.90;;;;;;;8.23;32.51;100259.84;7606532;32;39609;-85
2023/03/28 16:59:13;;;;;;;1.70;1.60;;;;;;;7.94;32.20;100266.38;7606728;32;39977;-85
2023/03/28 17:03:29;;;;;;;5.80;2.17;;;;;;;7.75;31.91;100266.56;7606816;32;37869;-84
2023/03/28 17:07:45;;;;;;;3.12;2.20;;;;;;;7.08;31.86;100276.00;7606772;32;36935;-85
2023/03/28 17:12:02;;;;;;;3.33;2.00;;;;;;;6.62;32.82;100285.75;7606524;32;39163;-85
2023/03/28 17:16:20;;;;;;;2.22;1.80;;;;;;;6.56;34.51;100300.25;7606377;32;40828;-86
2023/03/28 17:20:40;;;;;;;2.45;2.10;;;;;;;5.88;35.09;100317.63;7616962;32;38652;-85
2023/03/28 17:25:00;;;;;;;3.00;2.10;;;;;;;5.99;34.97;100319.63;7617014;32;37779;-85
2023/03/28 17:29:17;;;;;;;2.53;2.10;;;;;;;6.17;35.25;100321.44;7606756;32;40109;-86
2023/03/28 17:33:35;;;;;;;2.70;2.20;;;;;;;5.63;36.32;100332.91;7605939;32;40179;-84
2023/03/28 17:37:53;;;;;;;2.53;2.30;;;;;;;5.54;37.14;100341.56;7609166;32;36386;-86
2023/03/28 17:42:11;;;;;;;4.72;2.50;;;;;;;5.75;36.53;100351.12;7605983;32;36969;-83
2023/03/28 17:46:27;;;;;;;4.75;2.30;;;;;;;5.77;36.99;100349.00;7605786;32;39921;-82
2023/03/28 17:50:53;;;;;;;2.87;2.20;;;;;;;5.83;36.94;100358.94;7605529;32;40783;-84
2023/03/28 17:55:09;;;;;;;2.83;2.50;;;;;;;5.35;37.94;100368.59;7617221;32;38617;-81
2023/03/28 17:59:27;;;;;;;5.00;3.00;;;;;;;5.48;37.62;100372.22;7604805;32;36859;-84
2023/03/28 18:03:44;;;;;;;4.82;2.80;;;;;;;4.91;39.49;100377.72;7606264;32;39604;-82
2023/03/28 18:08:01;;;;;;;5.22;2.92;;;;;;;5.15;39.71;100368.78;7606086;32;40033;-85
2023/03/28 18:12:18;;;;;;;6.05;3.42;;;;;;;4.80;41.56;100385.47;7606009;32;37872;-84
2023/03/28 18:16:37;;;;;;;6.47;3.30;;;;;;;4.69;41.65;100386.16;7616810;32;37724;-86
2023/03/28 18:20:53;;;;;;;7.28;4.07;;;;;;;4.63;41.82;100393.28;7629854;32;39901;-84
2023/03/28 18:25:10;;;;;;;7.22;4.00;;;;;;;4.60;41.89;100395.59;7631924;32;39773;-81
2023/03/28 18:29:26;;;;;;;7.15;4.03;;;;;;;3.86;43.43;100397.81;7618756;32;38035;-83
2023/03/28 18:33:42;;;;;;;9.07;4.25;;;;;;;4.28;42.71;100401.81;7631674;32;35595;-83
2023/03/28 18:37:59;;;;;;;8.93;3.70;;;;;;;4.10;43.31;100399.78;7628888;32;39274;-83
2023/03/28 18:42:15;;;;;;;8.25;3.65;;;;;;;3.94;43.12;100402.97;7613165;32;40063;-82
2023/03/28 18:46:32;;;;;;;5.18;3.62;;;;;;;4.23;42.11;100398.91;7631548;32;38890;-81
2023/03/28 18:50:49;;;;;;;6.10;3.47;;;;;;;4.32;41.84;100413.00;7616499;32;37898;-83
2023/03/28 18:55:06;;;;;;;7.35;4.22;;;;;;;4.53;41.21;100414.53;7605152;32;40747;-82
2023/03/28 18:59:23;;;;;;;8.20;4.05;;;;;;;4.13;42.20;100420.97;7605185;32;39975;-82
2023/03/28 19:03:40;;;;;;;6.15;3.53;;;;;;;3.81;43.54;100422.75;7626030;32;38578;-82
2023/03/28 19:07:59;;;;;;;4.22;3.22;;;;;;;3.97;43.39;100416.06;7631167;32;37256;-81
2023/03/28 19:12:15;;;;;;;8.05;3.58;;;;;;;3.57;42.50;100432.34;7608298;32;39363;-82
2023/03/28 19:16:32;;;;;;;6.80;3.30;;;;;;;3.81;41.99;100427.28;7605644;32;39775;-81
2023/03/28 19:20:49;;;;;;;7.53;4.15;;;;;;;3.80;41.62;100421.06;7620947;32;37930;-81
2023/03/28 19:25:09;;;;;;;8.77;4.37;;;;;;;3.48;41.49;100429.00;7628836;32;36857;-82
2023/03/28 19:29:25;;;;;;;5.25;3.90;;;;;;;2.98;41.48;100442.09;7629851;32;40125;-83
2023/03/28 19:33:42;;;;;;;5.20;3.97;;;;;;;2.86;41.55;100441.84;7624954;32;40609;-81
2023/03/28 19:38:00;;;;;;;7.05;3.87;;;;;;;2.67;42.58;100442.66;7604001;32;37930;-81
2023/03/28 19:42:19;;;;;;;7.07;4.03;;;;;;;3.06;41.63;100433.00;7626360;32;36128;-83
2023/03/28 19:46:37;;;;;;;5.20;4.00;;;;;;;2.96;40.89;100434.19;7629981;32;39355;-79
2023/03/28 19:50:54;;;;;;;4.43;3.37;;;;;;;3.25;40.82;100423.25;7616159;32;39711;-82
2023/03/28 19:55:10;;;;;;;8.40;3.62;;;;;;;3.17;41.27;100432.34;7616462;32;37878;-81
2023/03/28 19:59:26;;;;;;;7.18;4.15;;;;;;;3.03;41.38;100447.69;7629240;32;37512;-83
2023/03/28 20:03:43;;;;;;;6.72;4.00;;;;;;;2.93;41.90;100448.09;7624767;32;39477;-83
2023/03/28 20:08:00;;;;;;;7.28;3.80;;;;;;;3.27;41.05;100448.94;7606762;32;40562;-82
2023/03/28 20:12:18;;;;;;;7.00;4.12;;;;;;;3.22;41.06;100435.25;7628737;32;38770;-83
2023/03/28 20:16:34;;;;;;;8.05;3.87;;;;;;;3.06;42.31;100441.06;7633338;32;37819;-82
2023/03/28 20:20:53;;;;;;;7.25;3.53;;;;;;;3.17;41.23;100438.59;7631177;32;39760;-83
2023/03/28 20:25:09;;;;;;;7.07;4.28;;;;;;;3.40;40.75;100442.72;7633232;32;40703;-82
2023/03/28 20:29:26;;;;;;;7.05;4.25;;;;;;;3.62;40.14;100442.47;7629169;32;37702;-82
2023/03/28 20:33:43;;;;;;;8.02;4.53;;;;;;;3.39;41.34;100432.97;7605861;32;37349;-82
2023/03/28 20:38:00;;;;;;;6.60;3.92;;;;;;;3.68;39.67;100431.69;7606988;32;39949;-82